Terminal Aerodrome Forecast
Issued by NWS

Home | Current Version | Previous Version | Text Only | Print | Product List | Glossary On
Versions: 1 2 3 4 5 6 7 8 9 10 11 12 13 14 15 16 17 18 19 20 21 22 23 24 25 26 27 28 29 30 31 32 33 34 35 36
185
FTAK31 PANC 231737
TAFADU
TAF
PADU 231737Z 2318/2418 19009KT 6SM -RA BR SCT015 OVC025
     FM232100 21010G18KT 6SM -RA BR SCT015 OVC025
     FM240300 24012G20KT 6SM -SHRA BR SCT015 BKN025
     FM240800 24012G20KT P6SM VCSH SCT020 BKN035=

USA.gov is the U.S. government's official web portal to all federal, state and local government web resources and services.